createdAt,value
2017-10-22T00:00:34.549Z,0.00
2017-10-22T00:01:34.571Z,0.00
2017-10-22T00:02:34.626Z,0.00
2017-10-22T00:03:34.704Z,0.00
2017-10-22T00:04:34.931Z,0.00
2017-10-22T00:05:34.702Z,0.00
2017-10-22T00:06:34.761Z,0.00
2017-10-22T00:07:34.770Z,0.00
2017-10-22T00:08:34.806Z,0.00
2017-10-22T00:09:34.853Z,0.00
2017-10-22T00:10:35.124Z,0.00
2017-10-22T00:11:34.910Z,0.00
2017-10-22T00:12:35.182Z,0.00
2017-10-22T00:13:34.976Z,0.00
2017-10-22T00:14:35.011Z,0.00
2017-10-22T00:15:35.041Z,0.00
2017-10-22T00:16:35.307Z,0.00
2017-10-22T00:17:35.087Z,0.00
2017-10-22T00:18:35.240Z,0.00
2017-10-22T00:19:35.169Z,0.00
2017-10-22T00:20:35.229Z,0.00
2017-10-22T00:21:35.234Z,0.00
2017-10-22T00:22:35.523Z,0.00
2017-10-22T00:23:35.281Z,0.00
2017-10-22T00:24:35.335Z,0.00
2017-10-22T00:25:35.366Z,0.00
2017-10-22T00:26:35.400Z,0.00
2017-10-22T00:27:35.416Z,0.00
2017-10-22T00:28:35.757Z,0.00
2017-10-22T00:29:35.496Z,0.00
2017-10-22T00:30:35.510Z,0.00
2017-10-22T00:31:35.559Z,0.00
2017-10-22T00:32:35.583Z,0.00
2017-10-22T00:33:35.625Z,0.00
2017-10-22T00:34:35.973Z,0.00
2017-10-22T00:35:35.669Z,0.00
2017-10-22T00:36:35.722Z,0.00
2017-10-22T00:37:35.734Z,0.00
2017-10-22T00:38:35.782Z,0.00
2017-10-22T00:39:35.797Z,0.00
2017-10-22T00:40:36.135Z,0.00
2017-10-22T00:41:35.891Z,0.00
2017-10-22T00:42:35.921Z,0.00
2017-10-22T00:43:35.978Z,0.00
2017-10-22T00:44:35.962Z,0.00
2017-10-22T00:45:35.992Z,0.00
2017-10-22T00:46:36.330Z,0.00
2017-10-22T00:47:36.058Z,0.00
2017-10-22T00:48:36.142Z,0.00
2017-10-22T00:49:36.247Z,0.00
2017-10-22T00:50:36.186Z,0.00
2017-10-22T00:51:36.186Z,0.00
2017-10-22T00:52:36.467Z,0.00
2017-10-22T00:53:36.264Z,0.00
2017-10-22T00:54:36.302Z,0.00
2017-10-22T00:55:36.317Z,0.00
2017-10-22T00:56:36.350Z,0.00
2017-10-22T00:57:36.378Z,0.00
2017-10-22T00:58:36.659Z,0.00
2017-10-22T00:59:36.510Z,0.00
2017-10-22T01:00:36.547Z,0.00
2017-10-22T01:01:36.525Z,0.00
2017-10-22T01:02:36.549Z,0.00
2017-10-22T01:03:36.595Z,0.00
2017-10-22T01:04:36.853Z,0.00
2017-10-22T01:05:36.637Z,0.00
2017-10-22T01:06:36.686Z,0.00
2017-10-22T01:07:36.701Z,0.00
2017-10-22T01:08:36.752Z,0.00
2017-10-22T01:09:36.789Z,0.00
2017-10-22T01:10:37.073Z,0.00
2017-10-22T01:11:36.962Z,0.00
2017-10-22T01:12:36.898Z,0.00
2017-10-22T01:13:36.912Z,0.00
2017-10-22T01:14:36.923Z,0.00
2017-10-22T01:15:36.971Z,0.00
2017-10-22T01:16:37.009Z,0.00
2017-10-22T01:17:37.289Z,0.00
2017-10-22T01:18:37.072Z,0.00
2017-10-22T01:19:37.095Z,0.00
2017-10-22T01:20:37.193Z,0.00
2017-10-22T01:21:37.217Z,0.00
2017-10-22T01:22:37.184Z,0.00
2017-10-22T01:23:37.214Z,0.00
2017-10-22T01:24:37.541Z,0.00
2017-10-22T01:25:37.332Z,0.00
2017-10-22T01:26:37.328Z,0.00
2017-10-22T01:27:37.343Z,0.00
2017-10-22T01:28:37.399Z,0.00
2017-10-22T01:29:37.430Z,0.00
2017-10-22T01:30:37.463Z,0.00
2017-10-22T01:31:37.726Z,0.00
2017-10-22T01:32:37.501Z,0.00
2017-10-22T01:33:37.551Z,0.00
2017-10-22T01:34:37.569Z,0.00
2017-10-22T01:35:37.663Z,0.00
2017-10-22T01:36:37.784Z,0.00
2017-10-22T01:37:37.673Z,0.00
2017-10-22T01:38:37.947Z,0.00
2017-10-22T01:39:37.791Z,0.00
2017-10-22T01:40:37.791Z,0.00
2017-10-22T01:41:37.792Z,0.00
2017-10-22T01:42:37.824Z,0.00
2017-10-22T01:43:37.875Z,0.00
2017-10-22T01:44:37.927Z,0.00
2017-10-22T01:45:38.238Z,0.00
2017-10-22T01:46:37.951Z,0.00
2017-10-22T01:47:38.034Z,0.00
2017-10-22T01:48:38.021Z,0.00
2017-10-22T01:49:38.051Z,0.00
2017-10-22T01:50:38.098Z,0.00
2017-10-22T01:51:38.446Z,0.00
2017-10-22T01:52:38.200Z,0.00
2017-10-22T01:53:38.177Z,0.00
2017-10-22T01:54:38.224Z,0.00
2017-10-22T01:55:38.262Z,0.00
2017-10-22T01:56:38.294Z,0.00
2017-10-22T01:57:38.309Z,0.00
2017-10-22T01:58:38.612Z,0.00
2017-10-22T01:59:38.385Z,0.00
2017-10-22T02:00:38.463Z,0.00
2017-10-22T02:01:38.451Z,0.00
2017-10-22T02:02:38.514Z,0.00
2017-10-22T02:03:38.529Z,0.00
2017-10-22T02:04:38.545Z,0.00
2017-10-22T02:05:38.891Z,0.00
2017-10-22T02:06:38.769Z,0.00
2017-10-22T02:07:38.684Z,0.00
2017-10-22T02:08:38.829Z,0.00
2017-10-22T02:09:38.712Z,0.00
2017-10-22T02:10:38.766Z,0.00
2017-10-22T02:11:38.812Z,0.00
2017-10-22T02:12:39.157Z,0.00
2017-10-22T02:13:38.835Z,0.00
2017-10-22T02:14:38.867Z,0.00
2017-10-22T02:15:38.896Z,0.00
2017-10-22T02:16:38.929Z,0.00
2017-10-22T02:17:39.050Z,0.00
2017-10-22T02:18:38.994Z,0.00
2017-10-22T02:19:39.324Z,0.00
2017-10-22T02:20:39.059Z,0.00
2017-10-22T02:21:39.072Z,0.00
2017-10-22T02:22:39.130Z,0.00
2017-10-22T02:23:39.207Z,0.00
2017-10-22T02:24:39.169Z,0.00
2017-10-22T02:25:39.236Z,0.00
2017-10-22T02:26:39.500Z,0.00
2017-10-22T02:27:39.264Z,0.00
2017-10-22T02:28:39.299Z,0.00
2017-10-22T02:29:39.335Z,0.00
2017-10-22T02:30:39.365Z,0.00
2017-10-22T02:31:39.392Z,0.00
2017-10-22T02:32:39.446Z,0.00
2017-10-22T02:33:39.743Z,0.00
2017-10-22T02:34:39.546Z,0.00
2017-10-22T02:35:39.524Z,0.00
2017-10-22T02:36:39.556Z,0.00
2017-10-22T02:37:39.586Z,0.00
2017-10-22T02:38:39.617Z,0.00
2017-10-22T02:39:39.969Z,0.00
2017-10-22T02:40:39.836Z,0.00
2017-10-22T02:41:39.717Z,0.00
2017-10-22T02:42:39.838Z,0.00
2017-10-22T02:43:39.838Z,0.00
2017-10-22T02:44:39.865Z,0.00
2017-10-22T02:45:40.092Z,0.00
2017-10-22T02:46:39.872Z,0.00
2017-10-22T02:47:39.922Z,0.00
2017-10-22T02:48:39.939Z,0.00
2017-10-22T02:49:40.095Z,0.00
2017-10-22T02:50:40.003Z,0.00
2017-10-22T02:51:40.355Z,0.00
2017-10-22T02:52:40.114Z,0.00
2017-10-22T02:53:40.113Z,0.00
2017-10-22T02:54:40.168Z,0.00
2017-10-22T02:55:40.176Z,0.00
2017-10-22T02:56:40.209Z,0.00
2017-10-22T02:57:40.497Z,0.00
2017-10-22T02:58:40.259Z,0.00
2017-10-22T02:59:40.305Z,0.00
2017-10-22T03:00:40.337Z,0.00
2017-10-22T03:01:40.373Z,0.00
2017-10-22T03:02:40.404Z,0.00
2017-10-22T03:03:40.734Z,0.00
2017-10-22T03:04:40.447Z,0.00
2017-10-22T03:05:40.511Z,0.00
2017-10-22T03:06:40.529Z,0.00
2017-10-22T03:07:40.541Z,0.00
2017-10-22T03:08:40.575Z,0.00
2017-10-22T03:09:40.965Z,0.00
2017-10-22T03:10:40.660Z,0.00
2017-10-22T03:11:40.686Z,0.00
2017-10-22T03:12:40.721Z,0.00
2017-10-22T03:13:40.766Z,0.00
2017-10-22T03:14:40.868Z,0.00
2017-10-22T03:15:41.102Z,0.00
2017-10-22T03:16:40.848Z,0.00
2017-10-22T03:17:40.899Z,0.00
2017-10-22T03:18:40.913Z,0.00
2017-10-22T03:19:40.925Z,0.00
2017-10-22T03:20:40.965Z,0.00
2017-10-22T03:21:41.323Z,0.00
2017-10-22T03:22:41.047Z,0.00
2017-10-22T03:23:41.068Z,0.00
2017-10-22T03:24:41.142Z,0.00
2017-10-22T03:25:41.142Z,0.00
2017-10-22T03:26:41.156Z,0.00
2017-10-22T03:27:41.483Z,0.00
2017-10-22T03:28:41.224Z,0.00
2017-10-22T03:29:41.245Z,0.00
2017-10-22T03:30:41.307Z,0.00
2017-10-22T03:31:41.329Z,0.00
2017-10-22T03:32:41.363Z,0.00
2017-10-22T03:33:41.628Z,0.00
2017-10-22T03:34:41.503Z,0.00
2017-10-22T03:35:41.450Z,0.00
2017-10-22T03:36:41.484Z,0.00
2017-10-22T03:37:41.513Z,0.00
2017-10-22T03:38:41.555Z,0.00
2017-10-22T03:39:41.811Z,0.00
2017-10-22T03:40:41.611Z,0.00
2017-10-22T03:41:41.627Z,0.00
2017-10-22T03:42:41.658Z,0.00
2017-10-22T03:43:41.757Z,0.00
2017-10-22T03:44:41.719Z,0.00
2017-10-22T03:45:42.177Z,0.00
2017-10-22T03:46:41.805Z,0.00
2017-10-22T03:47:41.831Z,0.00
2017-10-22T03:48:41.881Z,0.00
2017-10-22T03:49:41.903Z,0.00
2017-10-22T03:50:41.935Z,0.00
2017-10-22T03:51:42.061Z,0.00
2017-10-22T03:52:42.232Z,0.00
2017-10-22T03:53:42.045Z,0.00
2017-10-22T03:54:42.091Z,0.00
2017-10-22T03:55:42.102Z,0.00
2017-10-22T03:56:42.148Z,0.00
2017-10-22T03:57:42.142Z,0.00
2017-10-22T03:58:42.181Z,0.00
2017-10-22T03:59:42.449Z,0.00
2017-10-22T04:00:42.427Z,0.00
2017-10-22T04:01:42.282Z,0.00
2017-10-22T04:02:42.292Z,0.00
2017-10-22T04:03:42.327Z,0.00
2017-10-22T04:04:42.356Z,0.00
2017-10-22T04:05:42.388Z,0.00
2017-10-22T04:06:42.687Z,0.00
2017-10-22T04:07:42.466Z,0.00
2017-10-22T04:08:42.556Z,0.00
2017-10-22T04:09:42.532Z,0.00
2017-10-22T04:10:42.559Z,0.00
2017-10-22T04:11:42.584Z,0.00
2017-10-22T04:12:42.607Z,0.00
2017-10-22T04:13:43.063Z,0.00
2017-10-22T04:14:42.688Z,0.00
2017-10-22T04:15:42.764Z,0.00
2017-10-22T04:16:42.733Z,0.00
2017-10-22T04:17:42.785Z,0.00
2017-10-22T04:18:43.117Z,0.00
2017-10-22T04:19:42.844Z,0.00
2017-10-22T04:20:43.134Z,0.00
2017-10-22T04:21:42.898Z,0.00
2017-10-22T04:22:42.939Z,0.00
2017-10-22T04:23:42.952Z,0.00
2017-10-22T04:24:43.004Z,0.00
2017-10-22T04:25:43.034Z,0.00
2017-10-22T04:26:43.047Z,0.00
2017-10-22T04:27:43.117Z,0.00
2017-10-22T04:28:43.146Z,0.00
2017-10-22T04:29:43.149Z,0.00
2017-10-22T04:30:43.281Z,0.00
2017-10-22T04:31:43.221Z,0.00
2017-10-22T04:32:43.235Z,0.00
2017-10-22T04:33:43.664Z,0.00
2017-10-22T04:34:43.348Z,0.00
2017-10-22T04:35:43.347Z,0.00
2017-10-22T04:36:43.380Z,0.00
2017-10-22T04:37:43.424Z,0.00
2017-10-22T04:38:43.489Z,0.00
2017-10-22T04:39:43.460Z,0.00
2017-10-22T04:40:43.809Z,0.00
2017-10-22T04:41:43.540Z,0.00
2017-10-22T04:42:43.610Z,0.00
2017-10-22T04:43:43.609Z,0.00
2017-10-22T04:44:43.653Z,0.00
2017-10-22T04:45:43.662Z,0.00
2017-10-22T04:46:43.716Z,0.00
2017-10-22T04:47:44.027Z,0.00
2017-10-22T04:48:43.756Z,0.00
2017-10-22T04:49:43.779Z,0.00
2017-10-22T04:50:43.831Z,0.00
2017-10-22T04:51:43.851Z,0.00
2017-10-22T04:52:43.866Z,0.00
2017-10-22T04:53:43.902Z,0.00
2017-10-22T04:54:44.301Z,0.00
2017-10-22T04:55:43.968Z,0.00
2017-10-22T04:56:44.036Z,0.00
2017-10-22T04:57:44.038Z,0.00
2017-10-22T04:58:44.088Z,0.00
2017-10-22T04:59:44.092Z,0.00
2017-10-22T05:00:44.119Z,0.00
2017-10-22T05:01:44.453Z,0.00
2017-10-22T05:02:44.180Z,0.00
2017-10-22T05:03:44.218Z,0.00
2017-10-22T05:04:44.310Z,0.00
2017-10-22T05:05:44.344Z,0.00
2017-10-22T05:06:44.356Z,0.00
2017-10-22T05:07:44.350Z,0.00
2017-10-22T05:08:44.670Z,0.00
2017-10-22T05:09:44.422Z,0.00
2017-10-22T05:10:44.437Z,0.00
2017-10-22T05:11:44.498Z,0.00
2017-10-22T05:12:44.516Z,0.00
2017-10-22T05:13:44.555Z,0.00
2017-10-22T05:14:44.870Z,0.00
2017-10-22T05:15:44.593Z,0.00
2017-10-22T05:16:44.629Z,0.00
2017-10-22T05:17:44.692Z,0.00
2017-10-22T05:18:44.711Z,0.00
2017-10-22T05:19:44.757Z,0.00
2017-10-22T05:20:45.050Z,0.00
2017-10-22T05:21:44.801Z,0.00
2017-10-22T05:22:44.836Z,0.00
2017-10-22T05:23:44.858Z,0.00
2017-10-22T05:24:44.883Z,0.00
2017-10-22T05:25:44.951Z,0.00
2017-10-22T05:26:45.267Z,0.00
2017-10-22T05:27:44.978Z,0.00
2017-10-22T05:28:45.086Z,0.00
2017-10-22T05:29:45.058Z,0.00
2017-10-22T05:30:45.131Z,0.00
2017-10-22T05:31:45.133Z,0.00
2017-10-22T05:32:45.510Z,0.00
2017-10-22T05:33:45.200Z,0.00
2017-10-22T05:34:45.192Z,0.00
2017-10-22T05:35:45.244Z,0.00
2017-10-22T05:36:45.275Z,0.00
2017-10-22T05:37:45.305Z,0.00
2017-10-22T05:38:45.634Z,0.00
2017-10-22T05:39:45.383Z,0.00
2017-10-22T05:41:45.420Z,0.00
2017-10-22T05:42:45.446Z,0.00
2017-10-22T05:43:45.548Z,0.00
2017-10-22T05:44:45.764Z,0.00
2017-10-22T05:45:45.618Z,0.00
2017-10-22T05:46:45.575Z,0.00
2017-10-22T05:47:45.622Z,8.00
2017-10-22T05:48:45.635Z,4.00
2017-10-22T05:49:45.682Z,0.00
2017-10-22T05:50:46.188Z,4.00
2017-10-22T05:51:45.749Z,4.00
2017-10-22T05:52:45.780Z,4.00
2017-10-22T05:53:45.838Z,8.00
2017-10-22T05:54:45.830Z,8.00
2017-10-22T05:55:45.925Z,8.00
2017-10-22T05:56:46.267Z,12.00
2017-10-22T05:57:45.935Z,12.00
2017-10-22T05:58:45.970Z,16.00
2017-10-22T05:59:46.003Z,20.00
2017-10-22T06:00:46.033Z,24.00
2017-10-22T06:01:46.102Z,24.00
2017-10-22T06:02:46.440Z,28.00
2017-10-22T06:03:46.129Z,28.00
2017-10-22T06:04:46.157Z,36.00
2017-10-22T06:05:46.200Z,44.00
2017-10-22T06:06:46.230Z,44.00
2017-10-22T06:07:46.271Z,52.00
2017-10-22T06:08:46.587Z,56.00
2017-10-22T06:09:46.316Z,64.00
2017-10-22T06:10:46.347Z,64.00
2017-10-22T06:11:46.499Z,72.00
2017-10-22T06:12:46.401Z,84.00
2017-10-22T06:13:46.443Z,96.00
2017-10-22T06:14:46.770Z,104.00
2017-10-22T06:15:46.525Z,120.00
2017-10-22T06:16:46.537Z,132.00
2017-10-22T06:17:46.598Z,148.00
2017-10-22T06:18:46.686Z,168.00
2017-10-22T06:19:46.619Z,192.00
2017-10-22T06:20:46.962Z,212.00
2017-10-22T06:21:46.676Z,224.00
2017-10-22T06:22:46.709Z,232.00
2017-10-22T06:23:46.809Z,248.00
2017-10-22T06:24:46.771Z,264.00
2017-10-22T06:25:46.824Z,276.00
2017-10-22T06:26:46.884Z,280.00
2017-10-22T06:27:47.271Z,288.00
2017-10-22T06:28:46.924Z,296.00
2017-10-22T06:29:46.961Z,312.00
2017-10-22T06:30:46.980Z,328.00
2017-10-22T06:31:47.022Z,336.00
2017-10-22T06:32:47.040Z,348.00
2017-10-22T06:33:47.154Z,364.00
2017-10-22T06:34:47.366Z,372.00
2017-10-22T06:35:47.162Z,384.00
2017-10-22T06:36:47.210Z,392.00
2017-10-22T06:37:47.209Z,408.00
2017-10-22T06:38:47.217Z,420.00
2017-10-22T06:39:47.450Z,440.00
2017-10-22T06:40:47.295Z,448.00
2017-10-22T06:41:47.577Z,464.00
2017-10-22T06:42:47.364Z,476.00
2017-10-22T06:43:47.374Z,500.00
2017-10-22T06:44:47.403Z,520.00
2017-10-22T06:45:47.484Z,544.00
2017-10-22T06:46:47.463Z,572.00
2017-10-22T06:47:47.512Z,592.00
2017-10-22T06:48:47.840Z,600.00
2017-10-22T06:49:47.567Z,616.00
2017-10-22T06:50:47.674Z,644.00
2017-10-22T06:51:47.639Z,656.00
2017-10-22T06:52:47.653Z,668.00
2017-10-22T06:53:47.700Z,652.00
2017-10-22T06:54:47.716Z,668.00
2017-10-22T06:55:48.066Z,672.00
2017-10-22T06:56:47.780Z,680.00
2017-10-22T06:57:47.854Z,696.00
2017-10-22T06:58:47.858Z,688.00
2017-10-22T06:59:47.891Z,716.00
2017-10-22T07:00:47.905Z,764.00
2017-10-22T07:01:47.956Z,788.00
2017-10-22T07:02:48.267Z,812.00
2017-10-22T07:03:48.019Z,832.00
2017-10-22T07:04:48.045Z,824.00
2017-10-22T07:05:48.079Z,868.00
2017-10-22T07:06:48.129Z,868.00
2017-10-22T07:07:48.124Z,848.00
2017-10-22T07:08:48.211Z,840.00
2017-10-22T07:09:48.500Z,840.00
2017-10-22T07:10:48.220Z,800.00
2017-10-22T07:11:48.277Z,812.00
2017-10-22T07:12:48.294Z,800.00
2017-10-22T07:13:48.331Z,828.00
2017-10-22T07:14:48.666Z,836.00
2017-10-22T07:15:48.378Z,844.00
2017-10-22T07:16:48.665Z,804.00
2017-10-22T07:17:48.445Z,864.00
2017-10-22T07:18:48.471Z,888.00
2017-10-22T07:19:48.513Z,932.00
2017-10-22T07:20:48.540Z,976.00
2017-10-22T07:21:48.573Z,996.00
2017-10-22T07:22:48.597Z,964.00
2017-10-22T07:23:48.907Z,988.00
2017-10-22T07:24:48.680Z,1016.00
2017-10-22T07:25:48.697Z,1008.00
2017-10-22T07:26:48.745Z,940.00
2017-10-22T07:27:48.806Z,912.00
2017-10-22T07:28:48.830Z,772.00
2017-10-22T07:29:48.819Z,880.00
2017-10-22T07:30:49.099Z,924.00
2017-10-22T07:31:48.948Z,872.00
2017-10-22T07:32:48.915Z,720.00
2017-10-22T07:33:48.983Z,844.00
2017-10-22T07:34:48.994Z,844.00
2017-10-22T07:35:49.030Z,840.00
2017-10-22T07:36:49.042Z,936.00
2017-10-22T07:37:49.375Z,1052.00
2017-10-22T07:38:49.108Z,1160.00
2017-10-22T07:40:49.192Z,1300.00
2017-10-22T07:41:49.223Z,1296.00
2017-10-22T07:42:49.249Z,1464.00
2017-10-22T07:43:49.297Z,1480.00
2017-10-22T07:44:49.544Z,1568.00
2017-10-22T07:45:49.531Z,1840.00
2017-10-22T07:46:49.656Z,1816.00
2017-10-22T07:47:49.402Z,1780.00
2017-10-22T07:48:49.445Z,1768.00
2017-10-22T07:49:49.448Z,1792.00
2017-10-22T07:50:49.806Z,1680.00
2017-10-22T07:51:49.530Z,1648.00
2017-10-22T07:52:49.543Z,1744.00
2017-10-22T07:53:49.583Z,1720.00
2017-10-22T07:54:49.624Z,1616.00
2017-10-22T07:55:49.658Z,1600.00
2017-10-22T07:56:49.925Z,1680.00
2017-10-22T07:57:49.707Z,1520.00
2017-10-22T07:58:49.745Z,1556.00
2017-10-22T07:59:49.784Z,1700.00
2017-10-22T08:00:49.810Z,1616.00
2017-10-22T08:01:49.853Z,1548.00
2017-10-22T08:02:50.124Z,1652.00
2017-10-22T08:03:49.906Z,1736.00
2017-10-22T08:04:49.939Z,1904.00
2017-10-22T08:05:49.963Z,1632.00
2017-10-22T08:06:50.004Z,1436.00
2017-10-22T08:07:50.086Z,1428.00
2017-10-22T08:08:50.300Z,1368.00
2017-10-22T08:09:50.084Z,1300.00
2017-10-22T08:10:50.128Z,1260.00
2017-10-22T08:11:50.192Z,1356.00
2017-10-22T08:12:50.183Z,1372.00
2017-10-22T08:13:50.258Z,1364.00
2017-10-22T08:14:50.542Z,1708.00
2017-10-22T08:15:50.278Z,1748.00
2017-10-22T08:16:50.323Z,1984.00
2017-10-22T08:17:50.353Z,1896.00
2017-10-22T08:18:50.365Z,1680.00
2017-10-22T08:19:50.446Z,1872.00
2017-10-22T08:20:50.755Z,1732.00
2017-10-22T08:21:50.488Z,1716.00
2017-10-22T08:22:50.528Z,1748.00
2017-10-22T08:23:50.543Z,1788.00
2017-10-22T08:24:50.563Z,1688.00
2017-10-22T08:25:50.637Z,1640.00
2017-10-22T08:26:50.889Z,1616.00
2017-10-22T08:27:50.658Z,1704.00
2017-10-22T08:28:50.689Z,1812.00
2017-10-22T08:29:50.734Z,1604.00
2017-10-22T08:30:50.774Z,1644.00
2017-10-22T08:31:50.790Z,1388.00
2017-10-22T08:32:51.075Z,1300.00
2017-10-22T08:33:50.849Z,1288.00
2017-10-22T08:34:50.868Z,1264.00
2017-10-22T08:35:50.922Z,1224.00
2017-10-22T08:36:50.934Z,1336.00
2017-10-22T08:37:50.992Z,1508.00
2017-10-22T08:38:51.248Z,1440.00
2017-10-22T08:39:51.044Z,1264.00
2017-10-22T08:40:51.081Z,1340.00
2017-10-22T08:41:51.112Z,1520.00
2017-10-22T08:42:51.143Z,1472.00
2017-10-22T08:43:51.172Z,1592.00
2017-10-22T08:44:51.459Z,1640.00
2017-10-22T08:45:51.220Z,1528.00
2017-10-22T08:46:51.269Z,1424.00
2017-10-22T08:47:51.316Z,1568.00
2017-10-22T08:48:51.311Z,1448.00
2017-10-22T08:49:51.356Z,1520.00
2017-10-22T08:50:51.631Z,1628.00
2017-10-22T08:51:51.426Z,1492.00
2017-10-22T08:52:51.458Z,1556.00
2017-10-22T08:53:51.475Z,1512.00
2017-10-22T08:54:51.530Z,1596.00
2017-10-22T08:55:51.547Z,1484.00
2017-10-22T08:56:51.872Z,1400.00
2017-10-22T08:57:51.622Z,1548.00
2017-10-22T08:58:51.648Z,1604.00
2017-10-22T08:59:51.701Z,1524.00
2017-10-22T09:00:51.701Z,1536.00
2017-10-22T09:01:51.753Z,1628.00
2017-10-22T09:02:51.776Z,1752.00
2017-10-22T09:03:52.093Z,1716.00
2017-10-22T09:04:51.838Z,1700.00
2017-10-22T09:05:51.855Z,1592.00
2017-10-22T09:06:51.897Z,1960.00
2017-10-22T09:07:52.046Z,1992.00
2017-10-22T09:08:51.957Z,1732.00
2017-10-22T09:09:52.044Z,2056.00
2017-10-22T09:10:52.281Z,2192.00
2017-10-22T09:11:52.041Z,1988.00
2017-10-22T09:12:52.635Z,1960.00
2017-10-22T09:13:52.129Z,2008.00
2017-10-22T09:14:52.189Z,2528.00
2017-10-22T09:15:52.216Z,2308.00
2017-10-22T09:16:52.206Z,2064.00
2017-10-22T09:17:52.508Z,2088.00
2017-10-22T09:18:52.268Z,2460.00
2017-10-22T09:19:52.309Z,2660.00
2017-10-22T09:20:52.347Z,2920.00
2017-10-22T09:21:52.360Z,2352.00
2017-10-22T09:22:52.386Z,2580.00
2017-10-22T09:23:52.432Z,2556.00
2017-10-22T09:24:52.732Z,1932.00
2017-10-22T09:25:52.501Z,2096.00
2017-10-22T09:26:52.539Z,1944.00
2017-10-22T09:27:52.579Z,2048.00
2017-10-22T09:28:52.606Z,1528.00
2017-10-22T09:29:52.648Z,1720.00
2017-10-22T09:30:52.725Z,2208.00
2017-10-22T09:31:52.927Z,2224.00
2017-10-22T09:32:52.730Z,1796.00
2017-10-22T09:33:52.740Z,1604.00
2017-10-22T09:34:52.784Z,1672.00
2017-10-22T09:35:52.841Z,2116.00
2017-10-22T09:36:52.964Z,2232.00
2017-10-22T09:37:52.880Z,2192.00
2017-10-22T09:38:53.189Z,2396.00
2017-10-22T09:39:52.927Z,1716.00
2017-10-22T09:40:53.132Z,1948.00
2017-10-22T09:41:52.992Z,2472.00
2017-10-22T09:42:53.027Z,2116.00
2017-10-22T09:43:53.083Z,2312.00
2017-10-22T09:44:53.114Z,2280.00
2017-10-22T09:45:53.434Z,2036.00
2017-10-22T09:46:53.167Z,2048.00
2017-10-22T09:47:53.198Z,2044.00
2017-10-22T09:48:53.212Z,2316.00
2017-10-22T09:49:53.268Z,1968.00
2017-10-22T09:50:53.300Z,2400.00
2017-10-22T09:51:53.334Z,2536.00
2017-10-22T09:52:53.361Z,2332.00
2017-10-22T09:53:53.373Z,1952.00
2017-10-22T09:54:53.425Z,2440.00
2017-10-22T09:55:53.442Z,2296.00
2017-10-22T09:56:53.521Z,1948.00
2017-10-22T09:57:53.517Z,1840.00
2017-10-22T09:58:53.798Z,2244.00
2017-10-22T09:59:53.565Z,2080.00
2017-10-22T10:00:53.596Z,2172.00
2017-10-22T10:01:53.626Z,1720.00
2017-10-22T10:02:53.725Z,1684.00
2017-10-22T10:03:53.687Z,2016.00
2017-10-22T10:04:53.728Z,1760.00
2017-10-22T10:05:54.017Z,1744.00
2017-10-22T10:06:53.803Z,1968.00
2017-10-22T10:07:53.815Z,1900.00
2017-10-22T10:08:53.855Z,1856.00
2017-10-22T10:09:53.899Z,1796.00
2017-10-22T10:10:53.939Z,1696.00
2017-10-22T10:11:53.959Z,1888.00
2017-10-22T10:12:54.244Z,1880.00
2017-10-22T10:13:54.021Z,1740.00
2017-10-22T10:14:54.040Z,1964.00
2017-10-22T10:15:54.071Z,2000.00
2017-10-22T10:16:54.108Z,1864.00
2017-10-22T10:17:54.186Z,1896.00
2017-10-22T10:18:54.171Z,2016.00
2017-10-22T10:19:54.502Z,2076.00
2017-10-22T10:20:54.228Z,1920.00
2017-10-22T10:21:54.264Z,1596.00
2017-10-22T10:22:54.315Z,1808.00
2017-10-22T10:23:54.345Z,1668.00
2017-10-22T10:24:54.361Z,1792.00
2017-10-22T10:25:54.637Z,1780.00
2017-10-22T10:26:54.417Z,2256.00
2017-10-22T10:27:54.450Z,2204.00
2017-10-22T10:28:54.506Z,1804.00
2017-10-22T10:29:54.511Z,1848.00
2017-10-22T10:30:54.578Z,1756.00
2017-10-22T10:31:54.947Z,1904.00
2017-10-22T10:32:54.674Z,1836.00
2017-10-22T10:33:54.642Z,2304.00
2017-10-22T10:34:54.700Z,2804.00
2017-10-22T10:35:54.708Z,1768.00
2017-10-22T10:36:54.738Z,1748.00
2017-10-22T10:37:55.089Z,1616.00
2017-10-22T10:38:54.836Z,1568.00
2017-10-22T10:39:54.849Z,1716.00
2017-10-22T10:40:54.894Z,1832.00
2017-10-22T10:41:54.911Z,1868.00
2017-10-22T10:42:54.933Z,2328.00
2017-10-22T10:43:55.343Z,2036.00
2017-10-22T10:44:54.993Z,2172.00
2017-10-22T10:45:55.031Z,1844.00
2017-10-22T10:46:55.075Z,1664.00
2017-10-22T10:47:55.144Z,1696.00
2017-10-22T10:48:55.148Z,1432.00
2017-10-22T10:49:55.422Z,1608.00
2017-10-22T10:50:55.195Z,1852.00
2017-10-22T10:51:55.226Z,1856.00
2017-10-22T10:52:55.267Z,1492.00
2017-10-22T10:53:55.422Z,1988.00
2017-10-22T10:54:55.330Z,1540.00
2017-10-22T10:55:55.662Z,1448.00
2017-10-22T10:56:55.370Z,1736.00
2017-10-22T10:57:55.424Z,1736.00
2017-10-22T10:58:55.437Z,1668.00
2017-10-22T10:59:55.481Z,1772.00
2017-10-22T11:00:55.648Z,1984.00
2017-10-22T11:01:55.799Z,1948.00
2017-10-22T11:02:55.569Z,2120.00
2017-10-22T11:03:55.654Z,1852.00
2017-10-22T11:04:55.641Z,2164.00
2017-10-22T11:05:55.671Z,2076.00
2017-10-22T11:06:55.721Z,1916.00
2017-10-22T11:07:56.037Z,2012.00
2017-10-22T11:08:55.952Z,2324.00
2017-10-22T11:09:55.781Z,2264.00
2017-10-22T11:10:55.858Z,1624.00
2017-10-22T11:11:55.858Z,2772.00
2017-10-22T11:12:55.879Z,2472.00
2017-10-22T11:13:56.163Z,3484.00
2017-10-22T11:14:55.962Z,2976.00
2017-10-22T11:15:55.991Z,2936.00
2017-10-22T11:16:56.009Z,2680.00
2017-10-22T11:17:56.515Z,2784.00
2017-10-22T11:18:56.719Z,2412.00
2017-10-22T11:19:56.425Z,2528.00
2017-10-22T11:20:56.249Z,3160.00
2017-10-22T11:21:56.191Z,2404.00
2017-10-22T11:22:56.303Z,2100.00
2017-10-22T11:23:56.269Z,2752.00
2017-10-22T11:24:56.308Z,3080.00
2017-10-22T11:25:56.563Z,2712.00
2017-10-22T11:26:56.319Z,2612.00
2017-10-22T11:27:56.352Z,2832.00
2017-10-22T11:28:56.488Z,2024.00
2017-10-22T11:29:56.416Z,1828.00
2017-10-22T11:30:56.492Z,1716.00
2017-10-22T11:31:56.727Z,1552.00
2017-10-22T11:32:56.568Z,1472.00
2017-10-22T11:33:56.645Z,1368.00
2017-10-22T11:34:56.590Z,2476.00
2017-10-22T11:35:56.632Z,2152.00
2017-10-22T11:36:56.661Z,1984.00
2017-10-22T11:37:56.788Z,1696.00
2017-10-22T11:38:57.154Z,1896.00
2017-10-22T11:39:56.737Z,1968.00
2017-10-22T11:40:56.764Z,2376.00
2017-10-22T11:41:56.796Z,2428.00
2017-10-22T11:42:56.828Z,3164.00
2017-10-22T11:43:56.881Z,2984.00
2017-10-22T11:44:56.963Z,3056.00
2017-10-22T11:45:57.251Z,3232.00
2017-10-22T11:46:57.007Z,3188.00
2017-10-22T11:47:56.985Z,3140.00
2017-10-22T11:48:57.038Z,3776.00
2017-10-22T11:49:57.081Z,3744.00
2017-10-22T11:50:57.105Z,3568.00
2017-10-22T11:51:57.264Z,3224.00
2017-10-22T11:52:57.473Z,2416.00
2017-10-22T11:53:57.177Z,3040.00
2017-10-22T11:54:57.207Z,4820.00
2017-10-22T11:55:57.281Z,4176.00
2017-10-22T11:56:57.272Z,3400.00
2017-10-22T11:57:57.390Z,2844.00
2017-10-22T11:58:57.351Z,2784.00
2017-10-22T11:59:57.669Z,3492.00
2017-10-22T12:00:57.407Z,3040.00
2017-10-22T12:01:57.449Z,3208.00
2017-10-22T12:02:57.463Z,2672.00
2017-10-22T12:03:57.510Z,2648.00
2017-10-22T12:04:57.540Z,3092.00
2017-10-22T12:05:57.563Z,2688.00
2017-10-22T12:06:57.861Z,3176.00
2017-10-22T12:07:57.651Z,2448.00
2017-10-22T12:08:57.673Z,2964.00
2017-10-22T12:09:57.717Z,3476.00
2017-10-22T12:10:57.749Z,4072.00
2017-10-22T12:11:57.749Z,4412.00
2017-10-22T12:12:57.809Z,5072.00
2017-10-22T12:13:58.259Z,5952.00
2017-10-22T12:14:57.851Z,6072.00
2017-10-22T12:15:57.925Z,5840.00
2017-10-22T12:16:57.925Z,5828.00
2017-10-22T12:18:57.982Z,6120.00
2017-10-22T12:19:58.000Z,6296.00
2017-10-22T12:20:58.422Z,6372.00
2017-10-22T12:21:58.068Z,6228.00
2017-10-22T12:22:58.120Z,6076.00
2017-10-22T12:23:58.176Z,6440.00
2017-10-22T12:24:58.174Z,5328.00
2017-10-22T12:25:58.217Z,5148.00
2017-10-22T12:26:58.247Z,5740.00
2017-10-22T12:27:58.599Z,5696.00
2017-10-22T12:28:58.293Z,5040.00
2017-10-22T12:29:58.325Z,5100.00
2017-10-22T12:30:58.394Z,4760.00
2017-10-22T12:31:58.447Z,4804.00
2017-10-22T12:32:58.494Z,4488.00
2017-10-22T12:33:58.499Z,4044.00
2017-10-22T12:34:58.816Z,3900.00
2017-10-22T12:35:58.520Z,4484.00
2017-10-22T12:36:58.662Z,4984.00
2017-10-22T12:37:58.613Z,5040.00
2017-10-22T12:38:58.631Z,5892.00
2017-10-22T12:39:58.699Z,5544.00
2017-10-22T12:40:58.761Z,5408.00
2017-10-22T12:41:58.979Z,5988.00
2017-10-22T12:42:58.942Z,5492.00
2017-10-22T12:43:58.817Z,4972.00
2017-10-22T12:44:58.831Z,5924.00